createdAt,value
2022-09-02T00:01:23.970Z,14.69
2022-09-02T00:03:51.863Z,14.63
2022-09-02T00:06:19.090Z,14.73
2022-09-02T00:08:46.047Z,14.70
2022-09-02T00:11:19.092Z,14.66
2022-09-02T00:13:46.081Z,14.84
2022-09-02T00:16:13.068Z,14.74
2022-09-02T00:18:44.924Z,14.65
2022-09-02T00:21:13.792Z,14.72
2022-09-02T00:23:41.162Z,14.64
2022-09-02T00:26:07.937Z,14.60
2022-09-02T00:28:34.492Z,14.52
2022-09-02T00:31:01.691Z,14.49
2022-09-02T00:33:28.792Z,14.41
2022-09-02T00:35:55.532Z,14.22
2022-09-02T00:38:22.243Z,14.25
2022-09-02T00:40:49.951Z,14.12
2022-09-02T00:43:38.571Z,13.84
2022-09-02T00:46:06.000Z,13.67
2022-09-02T00:48:33.050Z,13.72
2022-09-02T00:50:59.717Z,13.69
2022-09-02T00:53:26.771Z,13.81
2022-09-02T00:55:53.337Z,13.93
2022-09-02T00:58:24.792Z,13.92
2022-09-02T01:00:56.753Z,14.02
2022-09-02T01:03:27.040Z,13.96
2022-09-02T01:05:55.175Z,13.94
2022-09-02T01:08:28.948Z,14.10
2022-09-02T01:10:56.785Z,14.03
2022-09-02T01:13:27.173Z,13.99
2022-09-02T01:16:12.931Z,13.98
2022-09-02T01:18:39.792Z,13.94
2022-09-02T01:21:06.663Z,13.88
2022-09-02T01:23:35.025Z,14.01
2022-09-02T01:26:02.090Z,14.15
2022-09-02T01:28:28.702Z,14.11
2022-09-02T01:30:55.526Z,14.24
2022-09-02T01:33:23.735Z,14.39
2022-09-02T01:35:52.386Z,14.37
2022-09-02T01:38:21.996Z,14.42
2022-09-02T01:40:49.074Z,14.49
2022-09-02T01:43:19.741Z,14.47
2022-09-02T01:45:47.791Z,14.34
2022-09-02T01:48:17.760Z,14.19
2022-09-02T01:50:52.913Z,14.13
2022-09-02T01:53:19.667Z,14.08
2022-09-02T01:55:46.778Z,14.08
2022-09-02T01:58:13.441Z,13.98
2022-09-02T02:00:40.101Z,13.76
2022-09-02T02:03:07.035Z,13.78
2022-09-02T02:05:33.678Z,13.70
2022-09-02T02:08:00.750Z,13.68
2022-09-02T02:10:27.612Z,13.64
2022-09-02T02:12:54.333Z,13.58
2022-09-02T02:15:21.737Z,13.58
2022-09-02T02:17:48.354Z,13.64
2022-09-02T02:20:16.107Z,13.54
2022-09-02T02:22:43.569Z,13.42
2022-09-02T02:25:10.690Z,13.22
2022-09-02T02:27:37.312Z,13.07
2022-09-02T02:30:06.658Z,13.19
2022-09-02T02:32:33.551Z,13.15
2022-09-02T02:35:00.337Z,13.11
2022-09-02T02:37:26.921Z,12.99
2022-09-02T02:39:54.029Z,12.92
2022-09-02T02:42:21.082Z,12.91
2022-09-02T02:44:47.645Z,12.88
2022-09-02T02:47:14.211Z,12.74
2022-09-02T02:49:43.593Z,12.64
2022-09-02T02:52:11.388Z,12.58
2022-09-02T02:54:38.546Z,12.53
2022-09-02T02:57:05.979Z,12.50
2022-09-02T02:59:32.767Z,12.48
2022-09-02T03:01:59.450Z,12.34
2022-09-02T03:04:26.159Z,12.29
2022-09-02T03:06:53.002Z,12.11
2022-09-02T03:09:20.422Z,12.04
2022-09-02T03:11:47.839Z,11.96
2022-09-02T03:14:14.582Z,11.87
2022-09-02T03:16:41.436Z,11.76
2022-09-02T03:19:08.045Z,11.75
2022-09-02T03:21:39.030Z,11.71
2022-09-02T03:24:06.055Z,11.72
2022-09-02T03:26:33.171Z,11.70
2022-09-02T03:28:59.815Z,11.65
2022-09-02T03:31:27.455Z,11.67
2022-09-02T03:33:54.496Z,11.61
2022-09-02T03:36:33.883Z,11.51
2022-09-02T03:39:00.506Z,11.52
2022-09-02T03:41:27.103Z,11.44
2022-09-02T03:43:53.660Z,11.40
2022-09-02T03:46:20.370Z,11.32
2022-09-02T03:48:47.222Z,11.37
2022-09-02T03:51:13.930Z,11.32
2022-09-02T03:53:40.510Z,11.32
2022-09-02T03:56:09.234Z,11.29
2022-09-02T03:58:36.319Z,11.21
2022-09-02T04:01:03.654Z,11.14
2022-09-02T04:03:30.335Z,10.99
2022-09-02T04:05:57.302Z,10.96
2022-09-02T04:08:24.593Z,10.92
2022-09-02T04:10:51.279Z,10.84
2022-09-02T04:13:18.273Z,10.82
2022-09-02T04:15:49.209Z,10.79
2022-09-02T04:18:17.319Z,10.76
2022-09-02T04:20:44.582Z,10.67
2022-09-02T04:23:11.568Z,10.60
2022-09-02T04:25:42.963Z,10.57
2022-09-02T04:28:09.727Z,10.53
2022-09-02T04:30:39.400Z,10.53
2022-09-02T04:33:06.074Z,10.56
2022-09-02T04:35:32.831Z,10.54
2022-09-02T04:37:59.557Z,10.46
2022-09-02T04:40:26.277Z,10.32
2022-09-02T04:42:55.275Z,10.40
2022-09-02T04:45:24.574Z,10.38
2022-09-02T04:47:53.332Z,10.44
2022-09-02T04:50:20.115Z,10.43
2022-09-02T04:52:46.660Z,10.48
2022-09-02T04:55:13.272Z,10.46
2022-09-02T04:57:39.858Z,10.46
2022-09-02T05:00:07.527Z,10.47
2022-09-02T05:02:34.142Z,10.48
2022-09-02T05:05:00.882Z,10.55
2022-09-02T05:07:27.470Z,10.65
2022-09-02T05:09:59.355Z,10.74
2022-09-02T05:12:28.054Z,10.71
2022-09-02T05:14:57.124Z,10.72
2022-09-02T05:17:23.803Z,10.76
2022-09-02T05:19:50.364Z,10.82
2022-09-02T05:22:17.603Z,10.86
2022-09-02T05:24:44.283Z,10.93
2022-09-02T05:27:11.087Z,11.00
2022-09-02T05:29:37.782Z,11.08
2022-09-02T05:32:04.970Z,11.17
2022-09-02T05:34:33.402Z,11.21
2022-09-02T05:37:00.127Z,11.29
2022-09-02T05:39:26.694Z,11.42
2022-09-02T05:41:53.262Z,11.54
2022-09-02T05:44:20.051Z,11.62
2022-09-02T05:46:48.901Z,11.75
2022-09-02T05:49:21.340Z,11.80
2022-09-02T05:51:51.136Z,11.86
2022-09-02T05:54:24.134Z,11.87
2022-09-02T05:56:53.880Z,12.00
2022-09-02T05:59:22.016Z,12.10
2022-09-02T06:01:49.340Z,12.24
2022-09-02T06:04:16.440Z,12.35
2022-09-02T06:06:43.447Z,12.54
2022-09-02T06:09:13.958Z,12.61
2022-09-02T06:11:46.331Z,12.66
2022-09-02T06:14:14.492Z,12.79
2022-09-02T06:16:42.122Z,12.95
2022-09-02T06:19:08.815Z,13.02
2022-09-02T06:21:37.138Z,13.13
2022-09-02T06:24:07.670Z,13.27
2022-09-02T06:26:34.526Z,13.34
2022-09-02T06:29:01.064Z,13.52
2022-09-02T06:31:27.726Z,13.69
2022-09-02T06:34:01.239Z,13.92
2022-09-02T06:36:31.347Z,14.10
2022-09-02T06:38:59.226Z,14.16
2022-09-02T06:41:29.037Z,14.31
2022-09-02T06:43:57.655Z,14.60
2022-09-02T06:46:46.496Z,14.77
2022-09-02T06:49:13.603Z,14.84
2022-09-02T06:51:42.303Z,14.96
2022-09-02T06:54:11.004Z,15.11
2022-09-02T06:56:43.828Z,15.35
2022-09-02T06:59:12.586Z,15.61
2022-09-02T07:01:39.314Z,15.79
2022-09-02T07:04:24.586Z,15.90
2022-09-02T07:06:53.599Z,15.96
2022-09-02T07:09:31.099Z,15.96
2022-09-02T07:12:03.594Z,16.04
2022-09-02T07:14:31.918Z,16.07
2022-09-02T07:17:00.105Z,16.19
2022-09-02T07:19:26.986Z,16.24
2022-09-02T07:21:53.718Z,16.39
2022-09-02T07:24:20.680Z,16.68
2022-09-02T07:26:47.659Z,16.84
2022-09-02T07:29:14.711Z,16.95
2022-09-02T07:31:44.332Z,16.96
2022-09-02T07:34:11.856Z,17.11
2022-09-02T07:36:38.555Z,17.16
2022-09-02T07:39:07.420Z,17.29
2022-09-02T07:41:34.916Z,17.35
2022-09-02T07:44:02.300Z,17.45
2022-09-02T07:46:32.293Z,17.61
2022-09-02T07:49:00.367Z,17.87
2022-09-02T07:51:30.862Z,18.01
2022-09-02T07:53:58.119Z,18.19
2022-09-02T07:56:24.775Z,18.21
2022-09-02T07:58:51.439Z,18.43
2022-09-02T08:01:22.730Z,18.41
2022-09-02T08:03:50.412Z,18.61
2022-09-02T08:06:17.162Z,18.52
2022-09-02T08:08:48.619Z,18.74
2022-09-02T08:11:15.386Z,18.46
2022-09-02T08:13:42.064Z,18.57
2022-09-02T08:16:08.816Z,18.72
2022-09-02T08:18:36.172Z,18.65
2022-09-02T08:21:02.819Z,18.68
2022-09-02T08:23:37.704Z,18.86
2022-09-02T08:26:05.683Z,19.09
2022-09-02T08:28:32.846Z,18.72
2022-09-02T08:30:59.674Z,18.59
2022-09-02T08:33:26.375Z,18.98
2022-09-02T08:35:52.952Z,18.75
2022-09-02T08:38:19.572Z,18.74
2022-09-02T08:40:46.325Z,18.96
2022-09-02T08:43:29.203Z,19.07
2022-09-02T08:45:58.839Z,19.38
2022-09-02T08:48:33.862Z,19.24
2022-09-02T08:51:08.731Z,19.53
2022-09-02T08:54:03.262Z,19.77
2022-09-02T08:56:31.428Z,19.87
2022-09-02T08:58:59.104Z,19.71
2022-09-02T09:01:44.391Z,20.26
2022-09-02T09:04:20.126Z,20.21
2022-09-02T09:06:58.912Z,20.54
2022-09-02T09:09:52.787Z,20.85
2022-09-02T09:12:28.398Z,21.03
2022-09-02T09:15:01.253Z,21.31
2022-09-02T09:17:59.498Z,21.35
2022-09-02T09:20:28.756Z,21.28
2022-09-02T09:22:56.867Z,21.18
2022-09-02T09:25:30.248Z,21.68
2022-09-02T09:28:00.689Z,22.16
2022-09-02T09:30:28.166Z,21.65
2022-09-02T09:33:02.789Z,21.49
2022-09-02T09:35:50.780Z,21.69
2022-09-02T09:38:30.091Z,21.60
2022-09-02T09:41:21.692Z,21.93
2022-09-02T09:43:48.591Z,22.24
2022-09-02T09:46:22.220Z,23.20
2022-09-02T09:48:49.907Z,23.75
2022-09-02T09:51:16.518Z,23.66
2022-09-02T09:53:43.838Z,24.36
2022-09-02T09:56:16.344Z,25.33
2022-09-02T09:58:46.233Z,25.91
2022-09-02T10:01:23.475Z,25.30
2022-09-02T10:03:56.423Z,24.41
2022-09-02T10:06:25.923Z,24.62
2022-09-02T10:08:55.692Z,24.05
2022-09-02T10:11:33.420Z,23.74
2022-09-02T10:14:07.314Z,24.69
2022-09-02T10:16:42.587Z,24.62
2022-09-02T10:19:39.835Z,23.81
2022-09-02T10:22:58.748Z,23.05
2022-09-02T10:25:28.671Z,23.86
2022-09-02T10:28:33.616Z,25.56
2022-09-02T10:31:26.468Z,24.26
2022-09-02T10:34:07.982Z,25.85
2022-09-02T10:36:41.594Z,26.29
2022-09-02T10:39:29.918Z,25.92
2022-09-02T10:42:08.739Z,25.79
2022-09-02T10:44:49.630Z,24.35
2022-09-02T10:47:31.775Z,24.44
2022-09-02T10:50:04.558Z,24.29
2022-09-02T10:52:50.666Z,24.95
2022-09-02T10:55:41.761Z,26.85
2022-09-02T10:58:34.538Z,28.04
2022-09-02T11:01:01.960Z,30.66
2022-09-02T11:03:46.617Z,29.60
2022-09-02T11:06:26.191Z,28.08
2022-09-02T11:09:01.864Z,26.09
2022-09-02T11:11:52.839Z,26.14
2022-09-02T11:14:26.881Z,25.91
2022-09-02T11:17:32.872Z,24.27
2022-09-02T11:20:04.153Z,23.59
2022-09-02T11:22:54.454Z,23.12
2022-09-02T11:25:38.815Z,23.11
2022-09-02T11:28:49.325Z,23.09
2022-09-02T11:31:22.863Z,23.80
2022-09-02T11:33:59.012Z,23.51
2022-09-02T11:36:26.371Z,22.92
2022-09-02T11:39:08.415Z,23.29
2022-09-02T11:41:59.387Z,22.67
2022-09-02T11:44:41.647Z,22.31
2022-09-02T11:47:56.237Z,21.81
2022-09-02T11:50:41.191Z,21.88
2022-09-02T11:53:10.735Z,21.91
2022-09-02T11:55:40.598Z,22.84
2022-09-02T11:58:07.264Z,23.16
2022-09-02T12:00:55.628Z,23.91
2022-09-02T12:03:58.716Z,24.86
2022-09-02T12:06:17.319Z,24.31
2022-09-02T12:08:44.499Z,24.12
2022-09-02T12:11:45.401Z,23.89
2022-09-02T12:14:21.073Z,25.91
2022-09-02T12:17:04.799Z,26.09
2022-09-02T12:19:45.525Z,24.98
2022-09-02T12:22:15.166Z,23.69
2022-09-02T12:24:51.835Z,23.37
2022-09-02T12:27:25.500Z,22.95
2022-09-02T12:29:52.716Z,22.70
2022-09-02T12:32:51.236Z,23.14
2022-09-02T12:35:35.231Z,23.27
2022-09-02T12:38:09.926Z,23.48
2022-09-02T12:40:42.127Z,23.35
2022-09-02T12:43:27.909Z,23.44
2022-09-02T12:46:05.614Z,22.83
2022-09-02T12:48:40.654Z,22.11
2022-09-02T12:51:08.800Z,22.08
2022-09-02T12:53:38.390Z,22.70
2022-09-02T12:56:26.962Z,25.41
2022-09-02T12:59:02.334Z,26.61
2022-09-02T13:01:46.889Z,25.31
2022-09-02T13:04:34.748Z,27.27
2022-09-02T13:07:38.843Z,29.55
2022-09-02T13:10:37.528Z,27.60
2022-09-02T13:13:49.305Z,26.66
2022-09-02T13:16:45.275Z,26.73
2022-09-02T13:19:27.981Z,28.09
2022-09-02T13:22:19.427Z,29.71
2022-09-02T13:24:52.458Z,32.20
2022-09-02T13:27:45.341Z,31.83
2022-09-02T13:30:26.275Z,26.06
2022-09-02T13:32:59.698Z,25.54
2022-09-02T13:35:27.742Z,25.47
2022-09-02T13:37:59.726Z,24.81
2022-09-02T13:40:35.191Z,25.20
2022-09-02T13:43:15.625Z,24.60
2022-09-02T13:45:42.904Z,24.61
2022-09-02T13:48:15.136Z,23.91
2022-09-02T13:50:47.116Z,23.52
2022-09-02T13:56:10.128Z,23.47
2022-09-02T13:58:46.362Z,23.11
2022-09-02T14:01:35.054Z,22.88
2022-09-02T14:04:07.403Z,22.87
2022-09-02T14:06:38.878Z,22.69
2022-09-02T14:09:09.110Z,22.31
2022-09-02T14:11:41.931Z,22.11
2022-09-02T14:14:09.369Z,21.96
2022-09-02T14:16:37.132Z,21.97
2022-09-02T14:19:05.588Z,21.58
2022-09-02T14:21:32.763Z,21.45
2022-09-02T14:23:59.472Z,21.48
2022-09-02T14:26:42.469Z,21.23
2022-09-02T14:29:12.899Z,21.10
2022-09-02T14:31:39.571Z,21.04
2022-09-02T14:34:33.437Z,21.15
2022-09-02T14:37:00.543Z,21.22
2022-09-02T14:39:27.496Z,21.34
2022-09-02T14:41:55.679Z,21.43
2022-09-02T14:44:26.934Z,21.37
2022-09-02T14:46:54.274Z,21.40
2022-09-02T14:49:24.073Z,21.28
2022-09-02T14:51:52.808Z,21.42
2022-09-02T14:54:37.623Z,21.35
2022-09-02T14:57:04.814Z,21.40
2022-09-02T14:59:31.531Z,21.49
2022-09-02T15:01:59.076Z,21.42
2022-09-02T15:04:25.658Z,21.34
2022-09-02T15:06:52.433Z,21.39
2022-09-02T15:09:19.680Z,21.44
2022-09-02T15:11:50.276Z,21.61
2022-09-02T15:14:17.144Z,21.65
2022-09-02T15:16:43.658Z,21.75
2022-09-02T15:19:10.206Z,22.10
2022-09-02T15:21:36.799Z,22.66
2022-09-02T15:24:04.006Z,23.18
2022-09-02T15:26:30.612Z,22.69
2022-09-02T15:28:57.309Z,22.66
2022-09-02T15:31:23.994Z,22.88
2022-09-02T15:33:51.799Z,22.84
2022-09-02T15:36:19.179Z,22.36
2022-09-02T15:38:45.759Z,21.86
2022-09-02T15:41:24.053Z,21.49
2022-09-02T15:43:54.047Z,21.64
2022-09-02T15:46:29.834Z,22.02
2022-09-02T15:49:02.662Z,21.96
2022-09-02T15:51:29.815Z,21.83
2022-09-02T15:54:09.580Z,21.71
2022-09-02T15:56:39.227Z,21.61
2022-09-02T15:59:09.506Z,21.59
2022-09-02T16:01:38.653Z,22.20
2022-09-02T16:04:06.124Z,22.66
2022-09-02T16:06:36.040Z,22.69
2022-09-02T16:09:03.659Z,22.52
2022-09-02T16:11:30.235Z,22.31
2022-09-02T16:13:57.042Z,21.96
2022-09-02T16:16:23.721Z,21.87
2022-09-02T16:18:53.767Z,21.75
2022-09-02T16:21:21.689Z,21.55
2022-09-02T16:23:50.131Z,21.29
2022-09-02T16:26:24.309Z,21.25
2022-09-02T16:28:52.944Z,21.35
2022-09-02T16:31:20.791Z,21.33
2022-09-02T16:34:03.790Z,21.24
2022-09-02T16:36:33.182Z,21.27
2022-09-02T16:39:01.159Z,21.25
2022-09-02T16:41:28.866Z,21.22
2022-09-02T16:43:57.372Z,21.19
2022-09-02T16:46:25.629Z,21.14
2022-09-02T16:48:52.980Z,21.08
2022-09-02T16:51:19.510Z,20.97
2022-09-02T16:53:46.492Z,20.92
2022-09-02T16:56:17.153Z,20.86
2022-09-02T16:58:43.786Z,20.77
2022-09-02T17:01:14.161Z,20.71
2022-09-02T17:03:41.518Z,20.68
2022-09-02T17:06:09.144Z,20.61
2022-09-02T17:08:35.753Z,20.61
2022-09-02T17:11:21.108Z,20.56
2022-09-02T17:13:53.913Z,20.52
2022-09-02T17:16:22.761Z,20.41
2022-09-02T17:18:49.822Z,20.33
2022-09-02T17:21:59.139Z,20.31
2022-09-02T17:24:27.858Z,20.16
2022-09-02T17:26:56.001Z,20.03
2022-09-02T17:32:10.952Z,19.88
2022-09-02T17:34:37.646Z,19.74
2022-09-02T17:37:05.318Z,19.60
2022-09-02T17:39:33.902Z,19.46
2022-09-02T17:42:00.791Z,19.41
2022-09-02T17:44:28.119Z,19.44
2022-09-02T17:46:56.245Z,19.31
2022-09-02T17:49:23.060Z,19.31
2022-09-02T17:51:50.099Z,19.24
2022-09-02T17:54:17.084Z,19.09
2022-09-02T17:57:21.800Z,18.91
2022-09-02T18:00:11.145Z,18.76
2022-09-02T18:03:13.094Z,18.66
2022-09-02T18:06:03.647Z,18.58
2022-09-02T18:08:43.937Z,18.61
2022-09-02T18:11:12.220Z,18.52
2022-09-02T18:13:54.684Z,18.58
2022-09-02T18:16:41.593Z,18.45
2022-09-02T18:19:36.158Z,18.34
2022-09-02T18:22:21.496Z,18.28
2022-09-02T18:24:57.343Z,18.19
2022-09-02T18:27:23.959Z,18.01
2022-09-02T18:29:53.627Z,17.80
2022-09-02T18:32:32.278Z,17.62
2022-09-02T18:35:04.893Z,17.55
2022-09-02T18:37:44.620Z,17.44
2022-09-02T18:40:20.355Z,17.24
2022-09-02T18:43:24.371Z,17.17
2022-09-02T18:45:54.637Z,16.97
2022-09-02T18:48:25.537Z,16.87
2022-09-02T18:51:16.647Z,16.74
2022-09-02T18:53:47.307Z,16.61
2022-09-02T18:56:14.284Z,16.50
2022-09-02T18:58:57.725Z,16.34
2022-09-02T19:01:27.346Z,16.23
2022-09-02T19:03:53.999Z,16.17
2022-09-02T19:06:28.852Z,16.01
2022-09-02T19:08:59.510Z,15.86
2022-09-02T19:11:27.299Z,15.72
2022-09-02T19:13:56.115Z,15.54
2022-09-02T19:16:32.077Z,15.48
2022-09-02T19:18:58.887Z,15.42
2022-09-02T19:21:35.754Z,15.32
2022-09-02T19:24:04.571Z,15.24
2022-09-02T19:26:31.495Z,15.11
2022-09-02T19:28:58.224Z,15.02
2022-09-02T19:31:28.336Z,14.98
2022-09-02T19:33:56.577Z,14.85
2022-09-02T19:36:26.387Z,14.78
2022-09-02T19:38:57.874Z,14.73
2022-09-02T19:41:28.103Z,14.68
2022-09-02T19:43:55.106Z,14.61
2022-09-02T19:46:57.868Z,14.55
2022-09-02T19:49:08.962Z,14.45
2022-09-02T19:51:35.519Z,14.43
2022-09-02T19:54:03.341Z,14.38
2022-09-02T19:56:29.975Z,14.35
2022-09-02T19:58:56.888Z,14.33
2022-09-02T20:01:23.537Z,14.26
2022-09-02T20:03:50.099Z,14.21
2022-09-02T20:06:16.672Z,14.16
2022-09-02T20:08:43.212Z,14.09
2022-09-02T20:11:09.792Z,14.06
2022-09-02T20:13:41.035Z,14.03
2022-09-02T20:16:16.652Z,14.04
2022-09-02T20:18:46.731Z,13.96
2022-09-02T20:21:32.384Z,13.85
2022-09-02T20:24:03.840Z,13.74
2022-09-02T20:26:53.730Z,13.70
2022-09-02T20:29:29.647Z,13.61
2022-09-02T20:32:19.250Z,13.57
2022-09-02T20:34:45.727Z,13.54
2022-09-02T20:37:29.695Z,13.48
2022-09-02T20:40:20.010Z,13.38
2022-09-02T20:42:57.404Z,13.32
2022-09-02T20:45:23.875Z,13.28
2022-09-02T20:48:29.266Z,13.19
2022-09-02T20:51:05.676Z,13.11
2022-09-02T20:54:01.648Z,13.03
2022-09-02T20:56:55.368Z,12.96
2022-09-02T20:59:43.993Z,12.93
2022-09-02T21:02:15.311Z,12.85
2022-09-02T21:04:43.105Z,12.74
2022-09-02T21:07:29.109Z,12.64
2022-09-02T21:10:20.191Z,12.58
2022-09-02T21:12:56.585Z,12.48
2022-09-02T21:15:42.979Z,12.38
2022-09-02T21:18:18.390Z,12.28
2022-09-02T21:21:03.826Z,12.19
2022-09-02T21:23:33.492Z,12.06
2022-09-02T21:26:30.564Z,12.07
2022-09-02T21:29:05.085Z,12.00
2022-09-02T21:31:35.831Z,11.96
2022-09-02T21:34:07.862Z,11.96
2022-09-02T21:36:36.090Z,11.91
2022-09-02T21:39:07.295Z,11.82
2022-09-02T21:41:44.612Z,11.77
2022-09-02T21:44:19.897Z,11.78
2022-09-02T21:47:04.165Z,11.78
2022-09-02T21:49:36.881Z,11.81
2022-09-02T21:52:06.610Z,11.93
2022-09-02T21:54:48.487Z,11.92
2022-09-02T21:57:21.004Z,12.07
2022-09-02T22:00:10.425Z,12.23
2022-09-02T22:02:47.193Z,12.58
2022-09-02T22:05:52.626Z,12.78
2022-09-02T22:08:34.573Z,13.04
2022-09-02T22:11:26.591Z,13.52
2022-09-02T22:13:56.703Z,13.82
2022-09-02T22:16:53.687Z,14.00
2022-09-02T22:19:20.608Z,14.23
2022-09-02T22:21:49.731Z,14.31
2022-09-02T22:24:18.820Z,14.57
2022-09-02T22:26:53.381Z,14.54
2022-09-02T22:29:29.068Z,14.48
2022-09-02T22:31:58.970Z,14.52
2022-09-02T22:34:28.333Z,14.70
2022-09-02T22:36:56.913Z,14.66
2022-09-02T22:39:33.861Z,14.57
2022-09-02T22:42:09.570Z,14.72
2022-09-02T22:45:02.363Z,14.58
2022-09-02T22:48:05.751Z,14.60
2022-09-02T22:50:57.953Z,14.57
2022-09-02T22:53:24.500Z,14.74
2022-09-02T22:56:09.769Z,14.72
2022-09-02T22:59:03.168Z,14.68
2022-09-02T23:01:40.861Z,14.55
2022-09-02T23:04:13.471Z,14.46
2022-09-02T23:06:40.031Z,14.59
2022-09-02T23:09:11.420Z,14.61
2022-09-02T23:11:40.973Z,14.67
2022-09-02T23:14:39.868Z,14.59
2022-09-02T23:17:15.574Z,14.67
2022-09-02T23:20:00.002Z,14.69
2022-09-02T23:22:35.486Z,14.64
2022-09-02T23:25:13.512Z,14.55
2022-09-02T23:27:55.648Z,14.55
2022-09-02T23:30:22.216Z,14.41
2022-09-02T23:33:04.727Z,14.36
2022-09-02T23:35:43.590Z,14.34
2022-09-02T23:38:16.194Z,14.22
2022-09-02T23:40:43.583Z,14.22
2022-09-02T23:43:15.492Z,14.25
2022-09-02T23:45:42.113Z,14.23
2022-09-02T23:48:39.532Z,14.14
2022-09-02T23:51:25.008Z,14.08
2022-09-02T23:54:13.291Z,14.07
2022-09-02T23:56:42.903Z,14.07
2022-09-02T23:59:15.283Z,13.98
